createdAt,value
2019-02-19T00:01:50.621Z,6.00
2019-02-19T00:04:21.445Z,6.57
2019-02-19T00:06:51.766Z,4.83
2019-02-19T00:09:21.809Z,6.57
2019-02-19T00:11:51.800Z,5.47
2019-02-19T00:14:21.825Z,5.50
2019-02-19T00:16:52.037Z,4.83
2019-02-19T00:19:22.113Z,6.73
2019-02-19T00:21:52.108Z,6.07
2019-02-19T00:24:22.165Z,4.50
2019-02-19T00:26:52.583Z,7.30
2019-02-19T00:29:22.769Z,6.03
2019-02-19T00:31:52.771Z,11.90
2019-02-19T00:34:22.915Z,5.70
2019-02-19T00:36:53.175Z,6.30
2019-02-19T00:39:23.202Z,6.00
2019-02-19T00:41:53.637Z,9.17
2019-02-19T00:44:23.653Z,7.27
2019-02-19T00:46:53.579Z,6.90
2019-02-19T00:49:23.592Z,4.73
2019-02-19T00:51:53.989Z,8.53
2019-02-19T00:54:24.305Z,5.53
2019-02-19T00:56:54.313Z,5.63
2019-02-19T00:59:24.286Z,4.83
2019-02-19T01:01:54.289Z,9.30
2019-02-19T01:04:24.293Z,7.13
2019-02-19T01:06:54.783Z,7.23
2019-02-19T01:09:24.753Z,6.43
2019-02-19T01:11:55.027Z,5.63
2019-02-19T01:14:25.372Z,5.43
2019-02-19T01:16:55.448Z,5.60
2019-02-19T01:19:25.529Z,5.70
2019-02-19T01:21:56.178Z,7.23
2019-02-19T01:24:26.191Z,11.20
2019-02-19T01:26:56.570Z,9.10
2019-02-19T01:29:26.569Z,7.00
2019-02-19T01:31:56.861Z,7.83
2019-02-19T01:34:27.339Z,6.63
2019-02-19T01:36:57.495Z,7.40
2019-02-19T01:39:27.581Z,7.60
2019-02-19T01:41:57.966Z,5.67
2019-02-19T01:44:27.969Z,6.40
2019-02-19T01:46:59.010Z,6.10
2019-02-19T01:49:29.004Z,5.87
2019-02-19T01:51:58.975Z,5.63
2019-02-19T01:54:30.246Z,9.20
2019-02-19T01:57:00.576Z,8.23
2019-02-19T01:59:30.673Z,6.83
2019-02-19T02:02:00.672Z,5.97
2019-02-19T02:04:31.024Z,5.40
2019-02-19T02:07:01.166Z,5.57
2019-02-19T02:09:31.176Z,6.13
2019-02-19T02:12:01.336Z,7.22
2019-02-19T02:14:32.062Z,8.37
2019-02-19T02:17:02.450Z,9.97
2019-02-19T02:19:32.466Z,8.37
2019-02-19T02:22:02.809Z,5.33
2019-02-19T02:24:32.820Z,6.90
2019-02-19T02:27:02.818Z,6.80
2019-02-19T02:29:32.819Z,7.63
2019-02-19T02:32:02.999Z,7.67
2019-02-19T02:34:33.215Z,6.30
2019-02-19T02:37:03.230Z,7.90
2019-02-19T02:39:33.301Z,9.33
2019-02-19T02:42:03.330Z,6.87
2019-02-19T02:44:34.436Z,7.10
2019-02-19T02:47:04.456Z,8.70
2019-02-19T02:49:34.895Z,9.17
2019-02-19T02:52:04.988Z,9.73
2019-02-19T02:54:35.040Z,8.40
2019-02-19T02:57:05.090Z,7.90
2019-02-19T02:59:35.417Z,7.97
2019-02-19T03:02:05.426Z,7.90
2019-02-19T03:04:59.705Z,7.87
2019-02-19T03:07:34.394Z,10.00
2019-02-19T03:10:04.703Z,9.53
2019-02-19T03:12:34.889Z,8.90
2019-02-19T03:15:05.761Z,8.80
2019-02-19T03:17:35.945Z,9.60
2019-02-19T03:20:06.403Z,7.93
2019-02-19T03:22:36.542Z,11.27
2019-02-19T03:25:07.143Z,9.03
2019-02-19T03:27:37.155Z,7.97
2019-02-19T03:30:09.842Z,8.87
2019-02-19T03:32:39.906Z,11.60
2019-02-19T03:35:09.978Z,9.60
2019-02-19T03:37:40.061Z,11.20
2019-02-19T03:40:10.334Z,9.47
2019-02-19T03:42:40.376Z,7.40
2019-02-19T03:45:11.360Z,8.90
2019-02-19T03:47:41.623Z,8.30
2019-02-19T03:50:12.133Z,11.07
2019-02-19T03:52:42.395Z,9.97
2019-02-19T03:55:12.946Z,11.73
2019-02-19T03:57:43.073Z,9.03
2019-02-19T04:00:13.667Z,9.27
2019-02-19T04:02:43.824Z,8.80
2019-02-19T04:05:14.161Z,8.67
2019-02-19T04:07:44.734Z,8.23
2019-02-19T04:10:14.952Z,9.07
2019-02-19T04:12:45.451Z,11.20
2019-02-19T04:15:15.835Z,10.93
2019-02-19T04:17:45.865Z,11.27
2019-02-19T04:20:16.694Z,13.40
2019-02-19T04:22:47.016Z,11.97
2019-02-19T04:25:17.046Z,9.23
2019-02-19T04:27:47.065Z,7.87
2019-02-19T04:30:17.307Z,11.83
2019-02-19T04:32:47.319Z,7.50
2019-02-19T04:35:17.694Z,9.90
2019-02-19T04:37:47.697Z,9.43
2019-02-19T04:40:18.359Z,10.67
2019-02-19T04:42:48.606Z,8.40
2019-02-19T04:45:18.595Z,11.77
2019-02-19T04:47:48.673Z,11.00
2019-02-19T04:50:19.769Z,9.73
2019-02-19T04:52:49.884Z,13.40
2019-02-19T04:55:20.387Z,9.30
2019-02-19T04:57:50.621Z,7.73
2019-02-19T05:00:20.745Z,9.17
2019-02-19T05:02:51.589Z,9.37
2019-02-19T05:05:21.798Z,14.77
2019-02-19T05:07:51.805Z,11.60
2019-02-19T05:10:21.912Z,9.67
2019-02-19T05:12:52.244Z,9.67
2019-02-19T05:15:22.239Z,9.83
2019-02-19T05:17:52.604Z,10.10
2019-02-19T05:20:23.573Z,11.33
2019-02-19T05:22:53.906Z,8.23
2019-02-19T05:25:23.902Z,9.38
2019-02-19T05:27:53.912Z,13.35
2019-02-19T05:30:23.924Z,14.80
2019-02-19T05:32:53.922Z,9.85
2019-02-19T05:35:24.617Z,11.77
2019-02-19T05:37:54.857Z,8.87
2019-02-19T05:40:24.871Z,11.67
2019-02-19T05:42:55.228Z,11.60
2019-02-19T05:45:25.230Z,12.17
2019-02-19T05:47:55.222Z,10.73
2019-02-19T05:50:25.480Z,10.53
2019-02-19T05:52:55.970Z,13.17
2019-02-19T05:55:26.338Z,15.10
2019-02-19T05:57:56.317Z,12.77
2019-02-19T06:03:49.476Z,9.40
2019-02-19T06:09:42.990Z,15.53
2019-02-19T06:12:12.999Z,7.83
2019-02-19T06:14:43.023Z,9.20
2019-02-19T06:17:13.201Z,11.03
2019-02-19T06:19:43.511Z,8.90
2019-02-19T06:22:13.557Z,9.23
2019-02-19T06:24:43.578Z,10.30
2019-02-19T06:27:13.609Z,13.30
2019-02-19T06:29:55.918Z,9.97
2019-02-19T06:32:26.678Z,16.93
2019-02-19T06:34:57.147Z,13.03
2019-02-19T06:37:27.166Z,13.03
2019-02-19T06:39:57.520Z,10.43
2019-02-19T06:42:27.539Z,11.27
2019-02-19T06:44:57.610Z,14.43
2019-02-19T06:47:27.637Z,16.97
2019-02-19T06:49:57.645Z,10.70
2019-02-19T06:52:27.675Z,15.20
2019-02-19T06:54:57.688Z,14.67
2019-02-19T06:57:27.722Z,10.97
2019-02-19T06:59:57.709Z,9.83
2019-02-19T07:02:38.824Z,12.27
2019-02-19T07:05:14.340Z,18.93
2019-02-19T07:07:44.721Z,11.77
2019-02-19T07:10:14.723Z,11.00
2019-02-19T07:12:45.126Z,12.05
2019-02-19T07:15:15.133Z,11.27
2019-02-19T07:17:46.132Z,9.58
2019-02-19T07:20:16.303Z,13.68
2019-02-19T07:22:46.542Z,14.83
2019-02-19T07:25:16.859Z,9.87
2019-02-19T07:27:46.919Z,11.80
2019-02-19T07:30:16.933Z,12.40
2019-02-19T07:32:47.351Z,10.88
2019-02-19T07:35:18.346Z,11.60
2019-02-19T07:37:48.767Z,14.87
2019-02-19T07:40:19.135Z,11.00
2019-02-19T07:42:49.129Z,10.97
2019-02-19T07:45:19.474Z,9.00
2019-02-19T07:47:49.493Z,10.03
2019-02-19T07:50:19.977Z,12.17
2019-02-19T07:52:49.997Z,13.05
2019-02-19T07:55:20.366Z,11.08
2019-02-19T07:57:50.691Z,12.60
2019-02-19T08:00:20.773Z,11.70
2019-02-19T08:02:50.781Z,15.40
2019-02-19T08:05:21.050Z,18.97
2019-02-19T08:07:51.362Z,11.50
2019-02-19T08:10:21.465Z,9.90
2019-02-19T08:12:51.474Z,10.63
2019-02-19T08:15:21.526Z,10.37
2019-02-19T08:17:51.569Z,13.13
2019-02-19T08:20:22.025Z,8.73
2019-02-19T08:22:52.052Z,13.10
2019-02-19T08:25:22.080Z,10.10
2019-02-19T08:27:52.088Z,11.67
2019-02-19T08:30:22.441Z,9.73
2019-02-19T08:32:52.444Z,11.60
2019-02-19T08:35:22.566Z,13.27
2019-02-19T08:37:52.600Z,12.00
2019-02-19T08:40:23.887Z,16.57
2019-02-19T08:42:53.922Z,10.67
2019-02-19T08:45:24.107Z,10.60
2019-02-19T08:47:54.100Z,8.67
2019-02-19T08:50:25.127Z,13.13
2019-02-19T08:52:55.456Z,17.43
2019-02-19T08:55:25.904Z,14.60
2019-02-19T08:57:56.273Z,10.90
2019-02-19T09:00:26.623Z,10.53
2019-02-19T09:02:56.642Z,17.77
2019-02-19T09:05:26.777Z,9.10
2019-02-19T09:07:57.202Z,6.80
2019-02-19T09:10:27.598Z,8.03
2019-02-19T09:12:57.634Z,13.57
2019-02-19T09:15:27.634Z,10.80
2019-02-19T09:17:57.718Z,9.83
2019-02-19T09:20:27.724Z,10.00
2019-02-19T09:22:57.784Z,10.10
2019-02-19T09:25:28.104Z,8.93
2019-02-19T09:27:58.439Z,10.33
2019-02-19T09:30:28.462Z,9.43
2019-02-19T09:32:58.783Z,6.83
2019-02-19T09:35:28.660Z,5.57
2019-02-19T09:37:58.763Z,12.93
2019-02-19T09:40:30.079Z,8.23
2019-02-19T09:43:00.126Z,8.70
2019-02-19T09:45:30.818Z,11.27
2019-02-19T09:48:01.643Z,9.93
2019-02-19T09:50:32.001Z,8.60
2019-02-19T09:53:02.400Z,7.23
2019-02-19T09:55:32.537Z,6.50
2019-02-19T09:58:02.605Z,6.90
2019-02-19T10:00:32.616Z,5.23
2019-02-19T10:03:02.769Z,8.10
2019-02-19T10:05:33.207Z,9.07
2019-02-19T10:08:03.281Z,7.87
2019-02-19T10:10:33.654Z,10.03
2019-02-19T10:13:03.680Z,10.53
2019-02-19T10:15:33.743Z,31.90
2019-02-19T10:18:10.025Z,10.57
2019-02-19T10:20:36.167Z,9.70
2019-02-19T10:23:06.902Z,6.23
2019-02-19T10:25:36.923Z,8.83
2019-02-19T10:28:07.429Z,7.13
2019-02-19T10:30:37.455Z,13.13
2019-02-19T10:33:07.900Z,10.90
2019-02-19T10:35:37.905Z,9.10
2019-02-19T10:38:09.497Z,8.47
2019-02-19T10:40:39.493Z,9.13
2019-02-19T10:43:09.548Z,6.60
2019-02-19T10:45:39.584Z,7.73
2019-02-19T10:48:09.607Z,5.70
2019-02-19T10:50:40.555Z,11.97
2019-02-19T10:53:10.573Z,8.70
2019-02-19T10:55:40.609Z,8.57
2019-02-19T10:58:11.607Z,5.90
2019-02-19T11:00:42.005Z,9.13
2019-02-19T11:03:12.080Z,10.63
2019-02-19T11:05:42.531Z,5.50
2019-02-19T11:08:12.587Z,4.77
2019-02-19T11:10:42.675Z,4.60
2019-02-19T11:13:12.721Z,8.60
2019-02-19T11:15:43.083Z,7.60
2019-02-19T11:18:13.510Z,8.17
2019-02-19T11:20:43.538Z,3.80
2019-02-19T11:23:13.949Z,6.83
2019-02-19T11:25:44.367Z,3.87
2019-02-19T11:28:14.419Z,4.27
2019-02-19T11:30:44.437Z,5.50
2019-02-19T11:33:14.509Z,5.50
2019-02-19T11:35:45.132Z,5.43
2019-02-19T11:38:15.173Z,9.70
2019-02-19T11:40:45.184Z,5.60
2019-02-19T11:43:16.171Z,4.50
2019-02-19T11:45:46.169Z,5.97
2019-02-19T11:48:16.200Z,6.50
2019-02-19T11:50:46.211Z,6.07
2019-02-19T11:53:16.237Z,4.30
2019-02-19T11:55:46.617Z,9.33
2019-02-19T11:58:16.647Z,7.80
2019-02-19T12:00:46.738Z,6.93
2019-02-19T12:03:16.886Z,8.23
2019-02-19T12:05:47.621Z,8.33
2019-02-19T12:08:17.935Z,12.07
2019-02-19T12:10:48.063Z,8.57
2019-02-19T12:13:18.086Z,9.00
2019-02-19T12:15:48.119Z,7.97
2019-02-19T12:18:18.154Z,6.27
2019-02-19T12:20:48.253Z,12.23
2019-02-19T12:23:18.244Z,7.47
2019-02-19T12:25:48.276Z,5.77
2019-02-19T12:28:18.990Z,4.60
2019-02-19T12:30:49.006Z,7.10
2019-02-19T12:33:19.393Z,5.43
2019-02-19T12:35:49.407Z,8.03
2019-02-19T12:38:19.460Z,8.40
2019-02-19T12:40:49.478Z,6.07
2019-02-19T12:43:19.487Z,8.47
2019-02-19T12:45:49.499Z,5.07
2019-02-19T12:48:19.507Z,5.80
2019-02-19T12:50:49.650Z,5.27
2019-02-19T12:53:19.658Z,10.10
2019-02-19T12:55:49.714Z,4.90
2019-02-19T12:58:20.061Z,6.73
2019-02-19T13:00:50.091Z,8.07
2019-02-19T13:03:20.088Z,4.17
2019-02-19T13:05:50.494Z,8.00
2019-02-19T13:08:20.488Z,5.60
2019-02-19T13:10:50.530Z,5.63
2019-02-19T13:13:20.538Z,6.17
2019-02-19T13:15:51.262Z,4.67
2019-02-19T13:18:21.978Z,9.07
2019-02-19T13:20:52.006Z,8.93
2019-02-19T13:23:22.384Z,5.10
2019-02-19T13:25:52.382Z,4.93
2019-02-19T13:28:22.422Z,6.70
2019-02-19T13:30:52.442Z,8.50
2019-02-19T13:33:22.456Z,3.57
2019-02-19T13:35:52.468Z,7.20
2019-02-19T13:38:22.805Z,3.67
2019-02-19T13:40:52.896Z,3.00
2019-02-19T13:43:22.918Z,6.57
2019-02-19T13:45:52.910Z,3.90
2019-02-19T13:48:22.926Z,5.90
2019-02-19T13:50:52.922Z,4.73
2019-02-19T13:53:28.436Z,3.80
2019-02-19T13:56:00.015Z,14.13
2019-02-19T13:58:30.425Z,3.20
2019-02-19T14:01:00.414Z,9.53
2019-02-19T14:03:30.437Z,3.83
2019-02-19T14:06:00.447Z,13.33
2019-02-19T14:08:31.447Z,3.97
2019-02-19T14:11:01.446Z,7.30
2019-02-19T14:13:31.439Z,5.40
2019-02-19T14:16:24.738Z,6.70
2019-02-19T14:19:00.751Z,11.63
2019-02-19T14:21:55.590Z,4.33
2019-02-19T14:24:44.662Z,5.00
2019-02-19T14:27:41.154Z,6.37
2019-02-19T14:30:43.572Z,4.63
2019-02-19T14:33:25.539Z,6.63
2019-02-19T14:36:15.001Z,8.13
2019-02-19T14:38:58.635Z,5.53
2019-02-19T14:41:46.613Z,4.70
2019-02-19T14:44:35.974Z,5.47
2019-02-19T14:47:25.326Z,4.27
2019-02-19T14:50:26.728Z,9.37
2019-02-19T14:53:24.666Z,6.27
2019-02-19T14:56:12.601Z,6.60
2019-02-19T14:59:01.679Z,6.73
2019-02-19T15:01:49.398Z,3.70
2019-02-19T15:04:37.326Z,6.77
2019-02-19T15:07:29.468Z,6.47
2019-02-19T15:10:17.366Z,6.27
2019-02-19T15:13:12.817Z,6.90
2019-02-19T15:16:07.658Z,6.87
2019-02-19T15:18:59.503Z,5.00
2019-02-19T15:21:47.688Z,7.10
2019-02-19T15:24:36.758Z,6.40
2019-02-19T15:27:16.068Z,4.60
2019-02-19T15:30:03.694Z,7.30
2019-02-19T15:32:59.153Z,8.90
2019-02-19T15:35:46.776Z,5.30
2019-02-19T15:38:34.766Z,5.23
2019-02-19T15:41:24.156Z,7.90
2019-02-19T15:44:10.475Z,9.00
2019-02-19T15:46:59.828Z,7.30
2019-02-19T15:49:50.333Z,7.00
2019-02-19T15:52:27.294Z,6.80
2019-02-19T15:55:25.476Z,8.30
2019-02-19T15:58:14.548Z,6.73
2019-02-19T16:00:44.141Z,6.43
2019-02-19T16:03:28.093Z,10.90
2019-02-19T16:06:04.448Z,9.90
2019-02-19T16:08:46.675Z,9.93
2019-02-19T16:11:22.506Z,8.07
2019-02-19T16:14:16.464Z,4.30
2019-02-19T16:16:48.038Z,6.10
2019-02-19T16:19:30.109Z,8.47
2019-02-19T16:22:22.004Z,11.07
2019-02-19T16:25:08.778Z,7.50
2019-02-19T16:27:56.615Z,5.90
2019-02-19T16:30:48.643Z,9.13
2019-02-19T16:33:27.361Z,8.10
2019-02-19T16:36:05.982Z,9.37
2019-02-19T16:38:45.701Z,5.10
2019-02-19T16:41:40.703Z,7.07
2019-02-19T16:44:32.700Z,12.60
2019-02-19T16:47:20.682Z,7.30
2019-02-19T16:50:07.361Z,8.37
2019-02-19T16:52:52.599Z,7.63
2019-02-19T16:55:50.504Z,7.13
2019-02-19T16:58:38.482Z,7.00
2019-02-19T17:01:33.910Z,8.60
2019-02-19T17:04:22.964Z,8.43
2019-02-19T17:07:11.230Z,7.80
2019-02-19T17:10:00.358Z,7.00
2019-02-19T17:13:02.054Z,10.10
2019-02-19T17:15:50.885Z,10.43
2019-02-19T17:18:37.217Z,13.83
2019-02-19T17:21:26.352Z,8.63
2019-02-19T17:24:34.311Z,9.93
2019-02-19T17:27:26.653Z,9.47
2019-02-19T17:30:18.537Z,10.93
2019-02-19T17:33:04.521Z,10.53
2019-02-19T17:35:53.970Z,11.93
2019-02-19T17:38:46.067Z,9.67
2019-02-19T17:41:34.115Z,15.10
2019-02-19T17:44:17.241Z,12.40
2019-02-19T17:47:09.491Z,9.90
2019-02-19T17:49:57.473Z,11.87
2019-02-19T17:52:40.151Z,7.37
2019-02-19T17:55:30.870Z,11.13
2019-02-19T17:58:20.341Z,7.93
2019-02-19T18:01:08.172Z,8.60
2019-02-19T18:03:50.468Z,9.30
2019-02-19T18:06:51.667Z,10.10
2019-02-19T18:09:43.587Z,12.63
2019-02-19T18:15:32.455Z,11.20
2019-02-19T18:18:12.301Z,10.70
2019-02-19T18:20:47.487Z,10.90
2019-02-19T18:23:14.237Z,12.00
2019-02-19T18:25:44.423Z,12.63
2019-02-19T18:28:14.595Z,20.23
2019-02-19T18:30:44.910Z,14.90
2019-02-19T18:33:14.971Z,12.47
2019-02-19T18:35:45.206Z,12.47
2019-02-19T18:38:15.218Z,17.57
2019-02-19T18:40:45.584Z,10.20
2019-02-19T18:43:15.689Z,11.00
2019-02-19T18:45:46.049Z,8.73
2019-02-19T18:48:16.122Z,14.80
2019-02-19T18:50:46.173Z,9.13
2019-02-19T18:53:16.186Z,8.90
2019-02-19T18:55:46.675Z,13.47
2019-02-19T18:58:17.135Z,9.03
2019-02-19T19:00:47.256Z,14.20
2019-02-19T19:03:17.262Z,9.13
2019-02-19T19:05:47.486Z,10.73
2019-02-19T19:08:17.927Z,13.60
2019-02-19T19:10:48.602Z,10.47
2019-02-19T19:13:19.006Z,11.60
2019-02-19T19:15:49.064Z,11.53
2019-02-19T19:18:19.541Z,8.87
2019-02-19T19:20:50.374Z,12.30
2019-02-19T19:23:20.518Z,13.60
2019-02-19T19:25:50.663Z,12.23
2019-02-19T19:28:20.735Z,13.60
2019-02-19T19:30:52.873Z,17.33
2019-02-19T19:33:23.087Z,12.27
2019-02-19T19:35:53.318Z,12.10
2019-02-19T19:38:23.478Z,14.33
2019-02-19T19:40:53.733Z,12.63
2019-02-19T19:43:23.859Z,15.10
2019-02-19T19:45:54.183Z,15.47
2019-02-19T19:48:24.289Z,15.03
2019-02-19T19:50:54.382Z,10.27
2019-02-19T19:53:25.213Z,14.00
2019-02-19T19:55:55.299Z,14.27
2019-02-19T19:58:25.344Z,16.83
2019-02-19T20:00:55.405Z,16.83
2019-02-19T20:03:25.482Z,16.50
2019-02-19T20:05:56.075Z,13.00
2019-02-19T20:08:26.251Z,16.20
2019-02-19T20:10:56.770Z,13.20
2019-02-19T20:13:26.888Z,18.03
2019-02-19T20:15:57.301Z,17.67
2019-02-19T20:18:28.623Z,15.07
2019-02-19T20:20:59.066Z,17.27
2019-02-19T20:23:29.370Z,14.20
2019-02-19T20:25:59.420Z,16.40
2019-02-19T20:28:30.824Z,14.23
2019-02-19T20:31:01.152Z,14.33
2019-02-19T20:33:31.659Z,21.33
2019-02-19T20:36:02.154Z,15.63
2019-02-19T20:38:34.125Z,17.47
2019-02-19T20:41:05.657Z,18.43
2019-02-19T20:43:35.804Z,20.53
2019-02-19T20:46:05.915Z,17.10
2019-02-19T20:48:36.068Z,13.70
2019-02-19T20:51:07.779Z,16.87
2019-02-19T20:53:37.900Z,17.03
2019-02-19T20:56:07.923Z,17.17
2019-02-19T20:58:37.983Z,22.30
2019-02-19T21:01:08.440Z,17.80
2019-02-19T21:03:38.549Z,18.43
2019-02-19T21:06:10.308Z,21.97
2019-02-19T21:08:41.502Z,18.80
2019-02-19T21:11:11.591Z,16.87
2019-02-19T21:13:41.995Z,19.83
2019-02-19T21:16:13.001Z,20.03
2019-02-19T21:18:43.475Z,16.90
2019-02-19T21:21:13.654Z,18.83
2019-02-19T21:23:43.819Z,19.03
2019-02-19T21:26:13.865Z,15.90
2019-02-19T21:28:44.013Z,19.60
2019-02-19T21:31:14.566Z,18.47
2019-02-19T21:33:45.085Z,17.50
2019-02-19T21:36:15.189Z,16.87
2019-02-19T21:38:45.318Z,17.47
2019-02-19T21:41:15.356Z,18.30
2019-02-19T21:43:45.769Z,18.77
2019-02-19T21:46:15.887Z,16.47
2019-02-19T21:48:48.174Z,18.70
2019-02-19T21:51:18.148Z,15.73
2019-02-19T21:53:48.697Z,13.37
2019-02-19T21:56:19.319Z,20.53
2019-02-19T21:58:49.436Z,17.57
2019-02-19T22:01:19.543Z,16.27
2019-02-19T22:03:50.490Z,19.10
2019-02-19T22:06:26.482Z,17.43
2019-02-19T22:08:57.053Z,17.80
2019-02-19T22:11:27.225Z,16.10
2019-02-19T22:13:57.279Z,15.70
2019-02-19T22:16:27.571Z,16.97
2019-02-19T22:18:57.575Z,18.43
2019-02-19T22:21:52.499Z,18.07
2019-02-19T22:24:35.706Z,15.73
2019-02-19T22:27:06.985Z,20.90
2019-02-19T22:29:37.323Z,16.17
2019-02-19T22:32:08.219Z,17.87
2019-02-19T22:34:38.643Z,14.67
2019-02-19T22:37:08.679Z,16.10
2019-02-19T22:39:39.089Z,19.50
2019-02-19T22:42:09.159Z,16.20
2019-02-19T22:44:39.216Z,19.77
2019-02-19T22:47:09.327Z,20.10
2019-02-19T22:49:39.577Z,19.60
2019-02-19T22:52:12.617Z,14.83
2019-02-19T22:54:49.100Z,18.70
2019-02-19T22:57:19.099Z,19.60
2019-02-19T22:59:49.103Z,16.43
2019-02-19T23:02:27.654Z,14.20
2019-02-19T23:04:59.097Z,16.97
2019-02-19T23:07:29.515Z,18.00
2019-02-19T23:09:59.970Z,20.10
2019-02-19T23:12:29.992Z,17.40
2019-02-19T23:15:00.000Z,18.33
2019-02-19T23:17:30.388Z,20.40
2019-02-19T23:20:00.769Z,18.80
2019-02-19T23:22:31.127Z,18.07
2019-02-19T23:25:01.149Z,17.67
2019-02-19T23:27:31.220Z,23.53
2019-02-19T23:30:01.383Z,18.47
2019-02-19T23:32:32.358Z,16.07
2019-02-19T23:35:33.670Z,17.73
2019-02-19T23:38:03.753Z,16.97
2019-02-19T23:40:34.594Z,22.47
2019-02-19T23:43:04.597Z,22.27
2019-02-19T23:45:34.649Z,25.73
2019-02-19T23:48:04.668Z,21.20
2019-02-19T23:50:34.711Z,22.50
2019-02-19T23:53:04.727Z,16.13
2019-02-19T23:55:35.385Z,18.53
2019-02-19T23:58:05.504Z,15.97
